Christman Field Latest Observations
Date Time
MST
Temp
°F
RH
%
DewPt
°F
Wind
mph
Dir
°
Gust
mph
Dir
°
Press
in Hg
Solar
W/m^2
Prec
in
2020-01-25 02:10 30.2 69.2 21.4 0.4 311 2.0 311 24.757 0.0 0.00
2020-01-25 02:05 30.1 70.2 21.6 2.4 311 3.2 338 24.756 0.0 0.00
2020-01-25 02:00 30.1 69.7 21.4 2.3 351 2.7 342 24.756 0.0 0.00
2020-01-25 01:55 30.5 69.4 21.7 2.2 339 2.8 359 24.758 0.0 0.00
2020-01-25 01:50 30.7 68.2 21.4 3.4 359 3.9 352 24.758 0.0 0.00
2020-01-25 01:45 29.4 71.1 21.2 2.5 346 3.4 337 24.758 0.1 0.00
2020-01-25 01:40 29.2 72.2 21.4 3.3 325 4.4 342 24.756 0.0 0.00
2020-01-25 01:35 29.1 70.8 20.8 4.1 340 4.6 340 24.757 0.0 0.00
2020-01-25 01:30 27.6 75.9 21.0 4.6 310 5.1 299 24.759 0.0 0.00
2020-01-25 01:25 26.3 80.7 21.2 4.3 299 5.0 324 24.759 0.0 0.00
2020-01-25 01:20 26.9 77.8 20.9 5.2 326 5.7 343 24.760 0.0 0.00
2020-01-25 01:15 28.0 74.7 21.0 4.1 343 5.2 346 24.760 0.1 0.00
2020-01-25 01:10 28.7 74.8 21.7 2.9 9 4.0 12 24.760 0.1 0.00
2020-01-25 01:05 30.6 73.6 23.1 3.6 330 5.4 30 24.759 0.1 0.00
2020-01-25 01:00 31.0 70.5 22.5 3.5 256 4.4 256 24.755 0.0 0.00
2020-01-25 00:55 31.3 68.9 22.3 4.1 248 5.2 252 24.757 0.0 0.00
2020-01-25 00:50 30.2 71.0 21.9 0.2 254 2.0 254 24.759 0.0 0.00
2020-01-25 00:45 30.5 71.1 22.2 0.2 241 1.9 241 24.759 0.0 0.00
2020-01-25 00:40 30.6 71.3 22.4 2.5 241 3.1 255 24.759 0.1 0.00
2020-01-25 00:35 30.3 72.1 22.4 2.2 256 2.9 256 24.762 0.1 0.00
2020-01-25 00:30 29.7 73.5 22.3 1.9 256 2.7 256 24.765 0.1 0.00
2020-01-25 00:25 29.8 72.5 22.0 0.0 259 0.0 259 24.766 0.1 0.00
2020-01-25 00:20 29.3 73.0 21.7 0.1 259 1.3 259 24.766 0.1 0.00
2020-01-25 00:15 29.4 74.6 22.3 1.2 259 2.1 259 24.766 0.1 0.00
2020-01-25 00:10 29.2 76.2 22.7 1.4 256 2.8 256 24.770 0.1 0.00
2020-01-25 00:05 29.1 76.7 22.7 0.8 310 1.5 310 24.772 0.1 0.00
2020-01-25 00:00 28.8 76.7 22.4 1.3 310 2.2 338 24.773 0.0 0.00
2020-01-24 23:55 28.8 73.8 21.5 2.7 338 3.2 334 24.773 0.1 0.00
2020-01-24 23:50 28.9 74.2 21.7 1.0 334 4.6 315 24.773 0.1 0.00
2020-01-24 23:45 29.3 73.2 21.8 0.8 30 3.1 30 24.773 0.1 0.00
CIRA

Cooperative Institute for Research in the Atmosphere

NHC


About the team